Time;durP1;ratioP1;P1;durP2;ratioP2;P2;SDS_P1;SDS_P2;PMS_P1;PMS_P2;Temp;Humidity;BMP_temperature;BMP_pressure;BME280_temperature;BME280_humidity;BME280_pressure;Samples;Min_cycle;Max_cycle;Signal;HPM_P1;HPM_P2
2021/05/06 00:01:15;;;;;;;;;;;;;;;13.17;59.60;98371.63;3507090;28;19973;-45
2021/05/06 00:03:21;;;;;;;;;;;;;;;13.14;59.98;98371.66;3507549;28;19932;-45
2021/05/06 00:14:25;;;;;;;;;;;;;;;13.05;59.40;98377.03;3467488;28;20008;-44
2021/05/06 00:30:11;;;;;;;;;;;;;;;12.77;59.92;98341.91;3507947;28;20377;-45
2021/05/06 00:33:51;;;;;;;;;;;;;;;12.71;59.76;98338.53;3499003;28;19924;-44
2021/05/06 00:35:33;;;;;;;;;;;;;;;12.69;59.62;98335.97;3500646;28;19946;-44
2021/05/06 00:37:16;;;;;;;;;;;;;;;12.67;59.22;98332.53;3512359;28;19924;-45
2021/05/06 00:39:01;;;;;;;;;;;;;;;12.65;59.30;98336.06;3508715;28;20388;-44
2021/05/06 00:40:54;;;;;;;;;;;;;;;12.63;59.36;98325.66;3511776;28;19967;-44
2021/05/06 00:42:47;;;;;;;;;;;;;;;12.62;59.23;98331.75;3509789;28;19924;-44
2021/05/06 00:53:48;;;;;;;;;;;;;;;12.58;59.42;98328.34;3512243;28;19963;-44
2021/05/06 00:55:04;;;;;;;;;;;;;;;12.56;58.91;98317.09;3498398;28;19928;-45
2021/05/06 00:56:54;;;;;;;;;;;;;;;12.55;59.02;98315.38;3504441;28;19975;-44
2021/05/06 01:00:53;;;;;;;;;;;;;;;12.56;58.60;98313.66;3490423;28;20412;-45
2021/05/06 01:02:51;;;;;;;;;;;;;;;12.54;58.77;98308.47;3508393;28;19924;-44
2021/05/06 01:04:41;;;;;;;;;;;;;;;12.53;58.78;98314.53;3509544;28;20304;-45
2021/05/06 01:06:25;;;;;;;;;;;;;;;12.51;58.76;98313.72;3510105;28;19935;-45
2021/05/06 01:08:11;;;;;;;;;;;;;;;12.49;58.46;98305.09;3507715;28;19924;-44
2021/05/06 01:10:02;;;;;;;;;;;;;;;12.49;58.57;98309.44;3498017;28;20355;-44
2021/05/06 01:11:46;;;;;;;;;;;;;;;12.46;58.86;98301.66;3506801;28;19966;-45
2021/05/06 01:13:29;;;;;;;;;;;;;;;12.42;59.06;98310.38;3507954;28;19923;-44
2021/05/06 01:15:11;;;;;;;;;;;;;;;12.39;58.60;98309.56;3509314;28;20013;-44
2021/05/06 01:16:52;;;;;;;;;;;;;;;12.37;58.84;98308.72;3507890;28;20451;-44
2021/05/06 01:18:33;;;;;;;;;;;;;;;12.36;58.88;98304.44;3511959;28;19923;-44
2021/05/06 01:20:15;;;;;;;;;;;;;;;12.34;58.89;98311.38;3507533;28;19924;-52
2021/05/06 01:21:57;;;;;;;;;;;;;;;12.32;58.93;98304.47;3511959;28;19958;-50
2021/05/06 01:23:41;;;;;;;;;;;;;;;12.31;58.94;98328.75;3506917;28;20019;-50
2021/05/06 01:25:22;;;;;;;;;;;;;;;12.30;58.89;98304.50;3510572;28;19924;-51
2021/05/06 01:27:07;;;;;;;;;;;;;;;12.30;58.65;98314.91;3509747;28;20452;-51
2021/05/06 01:28:54;;;;;;;;;;;;;;;12.30;58.61;98317.50;3506876;28;20423;-53
2021/05/06 01:30:39;;;;;;;;;;;;;;;12.31;58.26;98311.44;3511669;28;19924;-51
2021/05/06 01:32:24;;;;;;;;;;;;;;;12.35;58.20;98309.66;3506906;28;19924;-52
2021/05/06 01:34:11;;;;;;;;;;;;;;;12.36;58.16;98301.81;3511306;28;20057;-52
2021/05/06 01:35:55;;;;;;;;;;;;;;;12.39;57.74;98298.31;3509037;28;20397;-51
2021/05/06 01:37:45;;;;;;;;;;;;;;;12.42;57.98;98299.97;3509299;28;20081;-52
2021/05/06 01:43:35;;;;;;;;;;;;;;;12.39;57.81;98290.50;3508309;28;20514;-51
2021/05/06 01:47:31;;;;;;;;;;;;;;;12.37;57.74;98287.91;3466021;28;19932;-52
2021/05/06 01:59:15;;;;;;;;;;;;;;;12.28;57.94;98282.88;3506578;28;19924;-52
2021/05/06 02:01:00;;;;;;;;;;;;;;;12.25;58.24;98280.31;3508853;28;19981;-54
2021/05/06 02:02:41;;;;;;;;;;;;;;;12.25;58.00;98271.66;3508965;28;20418;-51
2021/05/06 02:04:22;;;;;;;;;;;;;;;12.23;58.35;98282.09;3506757;28;19931;-52
2021/05/06 02:06:04;;;;;;;;;;;;;;;12.22;58.38;98275.16;3511137;28;20420;-54
2021/05/06 02:07:46;;;;;;;;;;;;;;;12.20;58.43;98282.13;3504034;28;19924;-51
2021/05/06 02:09:28;;;;;;;;;;;;;;;12.18;58.39;98279.53;3497485;28;19964;-52
2021/05/06 02:11:09;;;;;;;;;;;;;;;12.16;58.63;98264.88;3506920;28;19924;-54
2021/05/06 02:12:51;;;;;;;;;;;;;;;12.12;58.87;98274.44;3509614;28;19923;-52
2021/05/06 02:14:32;;;;;;;;;;;;;;;12.08;58.87;98267.59;3506866;28;19956;-51
2021/05/06 02:16:17;;;;;;;;;;;;;;;12.04;58.97;98273.69;3506559;28;19967;-50
2021/05/06 02:17:59;;;;;;;;;;;;;;;12.03;59.01;98271.13;3510799;28;20420;-50
2021/05/06 02:19:44;;;;;;;;;;;;;;;12.02;58.86;98272.88;3507570;28;20305;-51
2021/05/06 02:21:25;;;;;;;;;;;;;;;11.99;59.22;98271.19;3511071;28;20300;-50
2021/05/06 02:23:06;;;;;;;;;;;;;;;11.97;59.46;98272.91;3506605;28;20427;-50
2021/05/06 02:24:47;;;;;;;;;;;;;;;11.95;59.55;98268.63;3509288;28;19923;-52
2021/05/06 02:26:29;;;;;;;;;;;;;;;11.92;59.61;98279.91;3509420;28;19924;-52
2021/05/06 02:28:10;;;;;;;;;;;;;;;11.90;59.72;98275.63;3506907;28;19927;-53
2021/05/06 02:29:51;;;;;;;;;;;;;;;11.87;59.83;98260.09;3510736;28;19977;-51
2021/05/06 02:31:32;;;;;;;;;;;;;;;11.84;60.02;98266.19;3507678;28;19928;-51
2021/05/06 02:33:14;;;;;;;;;;;;;;;11.79;60.25;98278.41;3510965;28;19939;-52
2021/05/06 02:34:55;;;;;;;;;;;;;;;11.74;60.23;98278.44;3507540;28;20343;-51
2021/05/06 02:36:36;;;;;;;;;;;;;;;11.70;60.33;98271.59;3507502;28;20005;-53
2021/05/06 02:38:17;;;;;;;;;;;;;;;11.68;60.58;98295.88;3509760;28;20562;-51
2021/05/06 02:39:59;;;;;;;;;;;;;;;11.65;60.92;98294.16;3507825;28;19928;-54
2021/05/06 02:41:40;;;;;;;;;;;;;;;11.63;60.62;98282.94;3510753;28;19924;-51
2021/05/06 02:43:21;;;;;;;;;;;;;;;11.60;60.99;98276.03;3506493;28;19986;-44
2021/05/06 02:45:03;;;;;;;;;;;;;;;11.59;61.20;98268.28;3511048;28;19924;-44
2021/05/06 02:46:45;;;;;;;;;;;;;;;11.58;61.18;98279.53;3506261;28;20065;-45
2021/05/06 02:48:26;;;;;;;;;;;;;;;11.55;61.60;98274.38;3508190;28;19931;-44
2021/05/06 02:50:11;;;;;;;;;;;;;;;11.52;61.54;98279.63;3508968;28;20329;-44
2021/05/06 02:51:55;;;;;;;;;;;;;;;11.48;61.93;98276.19;3507677;28;19924;-44
2021/05/06 02:53:37;;;;;;;;;;;;;;;11.46;62.16;98274.50;3510709;28;19982;-44
2021/05/06 02:55:23;;;;;;;;;;;;;;;11.43;62.00;98275.41;3505910;28;20032;-45
2021/05/06 02:57:10;;;;;;;;;;;;;;;11.40;62.44;98273.69;3510248;28;19931;-44
2021/05/06 03:02:53;;;;;;;;;;;;;;;11.35;62.58;98285.03;3510968;28;19923;-44
2021/05/06 03:04:34;;;;;;;;;;;;;;;11.34;62.54;98291.06;3507313;28;19930;-44
2021/05/06 03:06:19;;;;;;;;;;;;;;;11.33;62.80;98285.03;3509050;28;20005;-44
2021/05/06 03:08:08;;;;;;;;;;;;;;;11.32;62.91;98279.84;3508807;28;19924;-45
2021/05/06 03:09:58;;;;;;;;;;;;;;;11.31;63.00;98276.41;3507073;28;20406;-44
2021/05/06 03:11:43;;;;;;;;;;;;;;;11.33;62.97;98282.44;3510617;28;19931;-45
2021/05/06 03:23:32;;;;;;;;;;;;;;;11.57;62.68;98301.19;3496763;28;19924;-44
2021/05/06 03:25:16;;;;;;;;;;;;;;;11.58;62.51;98287.31;3505440;28;19924;-45
2021/05/06 03:26:58;;;;;;;;;;;;;;;11.60;62.30;98281.22;3508215;28;19969;-45
2021/05/06 03:28:43;;;;;;;;;;;;;;;11.59;62.86;98296.84;3508268;28;19928;-44
2021/05/06 03:30:54;;;;;;;;;;;;;;;11.57;62.78;98291.66;3508050;28;20393;-44
2021/05/06 03:32:44;;;;;;;;;;;;;;;11.55;62.69;98301.22;3496790;28;19924;-44
2021/05/06 03:34:43;;;;;;;;;;;;;;;11.52;62.67;98298.66;3506980;28;19930;-44
2021/05/06 03:42:22;;;;;;;;;;;;;;;11.54;62.67;98290.84;3508222;28;19974;-44
2021/05/06 03:44:15;;;;;;;;;;;;;;;11.54;63.09;98299.50;3512796;28;19924;-45
2021/05/06 03:46:27;;;;;;;;;;;;;;;11.57;63.31;98294.28;3509431;28;19931;-44
2021/05/06 04:16:49;;;;;;;;;;;;;;;12.43;61.11;98378.00;3506263;28;19923;-45
2021/05/06 04:18:33;;;;;;;;;;;;;;;12.42;61.19;98355.47;3507687;28;19924;-44
2021/05/06 04:26:17;;;;;;;;;;;;;;;12.22;61.66;98360.09;3512273;28;19923;-45
2021/05/06 04:28:13;;;;;;;;;;;;;;;12.22;61.59;98360.09;3510031;28;20478;-44
2021/05/06 04:30:20;;;;;;;;;;;;;;;12.19;62.13;98366.22;3508988;28;19923;-44
2021/05/06 04:36:04;;;;;;;;;;;;;;;12.29;62.20;98359.13;3508429;28;19931;-50
2021/05/06 04:37:46;;;;;;;;;;;;;;;12.31;61.89;98368.66;3512446;28;19924;-52
2021/05/06 04:39:35;;;;;;;;;;;;;;;12.32;62.01;98356.50;3508854;28;19977;-51
2021/05/06 04:41:38;;;;;;;;;;;;;;;12.35;61.95;98365.09;3508887;28;19924;-52
2021/05/06 04:44:03;;;;;;;;;;;;;;;12.38;61.71;98357.28;3498289;28;19932;-50
2021/05/06 04:46:10;;;;;;;;;;;;;;;12.39;61.74;98379.78;3508010;28;19927;-50
2021/05/06 04:54:05;;;;;;;;;;;;;;;12.55;61.72;98372.59;3508810;28;19978;-51
2021/05/06 04:55:49;;;;;;;;;;;;;;;12.59;61.44;98386.41;3510608;28;19956;-52
2021/05/06 05:03:38;;;;;;;;;;;;;;;12.59;61.38;98376.00;3510093;28;19924;-45
2021/05/06 05:05:19;;;;;;;;;;;;;;;12.64;61.72;98379.41;3506181;28;19979;-45
2021/05/06 05:07:09;;;;;;;;;;;;;;;12.67;61.81;98374.16;3512399;28;20278;-44
2021/05/06 05:08:54;;;;;;;;;;;;;;;12.70;61.35;98381.94;3508761;28;19974;-44
2021/05/06 05:10:44;;;;;;;;;;;;;;;12.71;61.07;98394.03;3510451;28;19924;-45
2021/05/06 05:12:57;;;;;;;;;;;;;;;12.70;61.34;98384.53;3509615;28;19985;-45
2021/05/06 05:15:01;;;;;;;;;;;;;;;12.72;61.62;98381.91;3508351;28;19931;-45
2021/05/06 05:18:54;;;;;;;;;;;;;;;12.75;61.60;98393.13;3497865;28;19924;-45
2021/05/06 05:20:44;;;;;;;;;;;;;;;12.77;61.51;98388.75;3506083;28;19924;-44
2021/05/06 05:24:29;;;;;;;;;;;;;;;12.79;61.64;98396.53;3510775;28;20506;-44
2021/05/06 05:26:11;;;;;;;;;;;;;;;12.81;61.95;98396.53;3506904;28;19979;-43
2021/05/06 05:27:55;;;;;;;;;;;;;;;12.79;61.83;98412.16;3511847;28;19931;-43
2021/05/06 05:29:36;;;;;;;;;;;;;;;12.79;61.48;98406.06;3507104;28;19927;-44
2021/05/06 05:31:17;;;;;;;;;;;;;;;12.73;61.47;98420.03;3510968;28;19963;-45
2021/05/06 05:32:59;;;;;;;;;;;;;;;12.69;61.88;98418.38;3509313;28;20285;-44
2021/05/06 05:34:43;;;;;;;;;;;;;;;12.68;62.11;98407.13;3508033;28;19979;-43
2021/05/06 05:36:25;;;;;;;;;;;;;;;12.68;62.00;98401.91;3510313;28;20008;-43
2021/05/06 05:38:16;;;;;;;;;;;;;;;12.68;62.63;98408.84;3508522;28;20368;-44
2021/05/06 05:40:13;;;;;;;;;;;;;;;12.63;62.15;98429.75;3510414;28;20389;-43
2021/05/06 05:44:01;;;;;;;;;;;;;;;12.61;62.69;98417.63;3505965;28;20324;-43
2021/05/06 05:46:15;;;;;;;;;;;;;;;12.62;62.59;98412.41;3509712;28;19928;-44
2021/05/06 05:56:06;;;;;;;;;;;;;;;12.81;62.89;98423.41;3491132;28;19978;-51
2021/05/06 05:57:48;;;;;;;;;;;;;;;12.85;62.51;98439.81;3508689;28;19981;-51
2021/05/06 05:59:29;;;;;;;;;;;;;;;12.86;62.30;98446.72;3509862;28;20282;-51
2021/05/06 06:01:10;;;;;;;;;;;;;;;12.88;62.43;98426.75;3506433;28;20081;-50
2021/05/06 06:02:51;;;;;;;;;;;;;;;12.91;62.40;98435.41;3511584;28;19931;-52
2021/05/06 06:04:32;;;;;;;;;;;;;;;12.93;62.14;98438.84;3507677;28;19951;-50
2021/05/06 06:06:14;;;;;;;;;;;;;;;12.95;62.43;98444.88;3510746;28;20389;-50
2021/05/06 06:07:55;;;;;;;;;;;;;;;12.95;62.30;98438.84;3508430;28;20308;-50
2021/05/06 06:09:37;;;;;;;;;;;;;;;12.95;62.76;98444.03;3508552;28;20359;-50
2021/05/06 06:11:18;;;;;;;;;;;;;;;12.93;62.49;98440.59;3509606;28;19971;-43
2021/05/06 06:12:59;;;;;;;;;;;;;;;12.93;62.46;98451.88;3503746;28;20464;-43
2021/05/06 06:14:47;;;;;;;;;;;;;;;12.90;62.85;98457.09;3511327;28;19924;-43
2021/05/06 06:16:30;;;;;;;;;;;;;;;12.90;62.76;98453.63;3502755;28;19932;-43
2021/05/06 06:18:13;;;;;;;;;;;;;;;12.90;63.26;98459.72;3498102;28;19964;-43
2021/05/06 06:19:57;;;;;;;;;;;;;;;12.93;63.21;98448.41;3509048;28;19924;-43
2021/05/06 06:21:43;;;;;;;;;;;;;;;12.99;63.07;98463.91;3509231;28;19924;-44
2021/05/06 06:23:27;;;;;;;;;;;;;;;13.02;63.21;98463.88;3497592;28;20405;-43
2021/05/06 06:25:09;;;;;;;;;;;;;;;13.06;63.16;98481.16;3503683;28;19977;-43
2021/05/06 06:26:51;;;;;;;;;;;;;;;13.05;63.10;98476.84;3511014;28;19924;-46
2021/05/06 06:28:37;;;;;;;;;;;;;;;13.06;63.01;98480.31;3507499;28;19924;-47
2021/05/06 06:30:19;;;;;;;;;;;;;;;13.06;63.08;98482.91;3507755;28;20297;-45
2021/05/06 06:32:01;;;;;;;;;;;;;;;13.08;63.29;98481.13;3509961;28;19924;-44
2021/05/06 06:33:43;;;;;;;;;;;;;;;13.06;63.11;98488.97;3506064;28;19923;-45
2021/05/06 06:35:24;;;;;;;;;;;;;;;13.01;63.55;98476.91;3510998;28;19970;-45
2021/05/06 06:37:06;;;;;;;;;;;;;;;12.98;64.18;98480.41;3505977;28;20379;-45
2021/05/06 06:38:47;;;;;;;;;;;;;;;12.95;64.40;98486.53;3510459;28;19931;-44
2021/05/06 06:40:28;;;;;;;;;;;;;;;12.97;64.21;98488.28;3507624;28;19924;-44
2021/05/06 06:42:10;;;;;;;;;;;;;;;12.98;64.44;98484.75;3508439;28;20296;-45
2021/05/06 06:43:53;;;;;;;;;;;;;;;13.00;64.60;98493.41;3509014;28;19924;-51
2021/05/06 06:45:34;;;;;;;;;;;;;;;13.00;64.35;98489.09;3506105;28;19940;-53
2021/05/06 06:47:15;;;;;;;;;;;;;;;13.00;65.41;98498.63;3510843;28;19924;-51
2021/05/06 06:48:58;;;;;;;;;;;;;;;13.00;65.56;98507.31;3506348;28;19945;-48
2021/05/06 06:50:39;;;;;;;;;;;;;;;12.98;66.60;98502.97;3510274;28;20339;-44
2021/05/06 06:52:21;;;;;;;;;;;;;;;12.94;67.85;98508.22;3506673;28;20020;-44
2021/05/06 06:54:02;;;;;;;;;;;;;;;12.89;69.18;98522.16;3508827;28;19966;-45
2021/05/06 06:55:44;;;;;;;;;;;;;;;12.84;69.65;98529.19;3498047;28;19931;-45
2021/05/06 06:57:41;;;;;;;;;;;;;;;12.67;71.77;98535.47;3502398;28;20022;-45
2021/05/06 06:59:22;;;;;;;;;;;;;;;12.60;72.16;98533.84;3510694;28;20318;-44
2021/05/06 07:01:03;;;;;;;;;;;;;;;12.58;73.31;98535.59;3505934;28;20451;-44
2021/05/06 07:02:44;;;;;;;;;;;;;;;12.58;72.82;98543.41;3509861;28;19924;-44
2021/05/06 07:04:26;;;;;;;;;;;;;;;12.56;71.76;98532.16;3508360;28;20339;-45
2021/05/06 07:06:07;;;;;;;;;;;;;;;12.53;71.81;98532.19;3507641;28;21217;-44
2021/05/06 07:07:49;;;;;;;;;;;;;;;12.50;71.41;98529.63;3510333;28;19924;-45
2021/05/06 07:09:30;;;;;;;;;;;;;;;12.46;71.08;98527.97;3507401;28;19924;-44
2021/05/06 07:11:12;;;;;;;;;;;;;;;12.42;71.13;98534.94;3510604;28;19924;-45
2021/05/06 07:12:53;;;;;;;;;;;;;;;12.41;71.48;98529.75;3505457;28;20040;-53
2021/05/06 07:14:37;;;;;;;;;;;;;;;12.39;71.27;98522.81;3508509;28;19935;-50
2021/05/06 07:16:25;;;;;;;;;;;;;;;12.36;71.44;98537.59;3498409;28;19977;-53
2021/05/06 07:18:08;;;;;;;;;;;;;;;12.29;72.23;98549.81;3500210;28;21100;-53
2021/05/06 07:19:49;;;;;;;;;;;;;;;12.23;73.24;98559.44;3510370;28;20023;-54
2021/05/06 07:21:31;;;;;;;;;;;;;;;12.08;74.51;98566.53;3505883;28;19970;-55
2021/05/06 07:23:13;;;;;;;;;;;;;;;11.95;74.83;98573.56;3510547;28;19931;-51
2021/05/06 07:24:57;;;;;;;;;;;;;;;11.82;73.71;98570.22;3506154;28;20022;-56
2021/05/06 07:26:39;;;;;;;;;;;;;;;11.72;73.50;98572.91;3508526;28;19924;-58
2021/05/06 07:28:22;;;;;;;;;;;;;;;11.65;74.87;98579.91;3498602;28;19967;-59
2021/05/06 07:30:06;;;;;;;;;;;;;;;11.61;74.23;98589.44;3500567;28;19905;-60
2021/05/06 07:31:50;;;;;;;;;;;;;;;11.55;74.85;98589.50;3510308;28;20424;-60
2021/05/06 07:33:33;;;;;;;;;;;;;;;11.52;74.35;98597.31;3505754;28;20026;-59
2021/05/06 07:35:21;;;;;;;;;;;;;;;11.48;73.44;98602.53;3509639;28;19923;-60
2021/05/06 07:37:03;;;;;;;;;;;;;;;11.40;73.09;98605.19;3507967;28;20440;-60
2021/05/06 07:38:46;;;;;;;;;;;;;;;11.33;72.12;98614.75;3508219;28;19927;-59
2021/05/06 07:40:30;;;;;;;;;;;;;;;11.27;73.07;98609.59;3497215;28;20369;-60
2021/05/06 07:42:14;;;;;;;;;;;;;;;11.19;72.64;98614.81;3501117;28;19931;-60
2021/05/06 07:43:56;;;;;;;;;;;;;;;11.15;72.46;98615.72;3510303;28;20401;-58
2021/05/06 07:45:39;;;;;;;;;;;;;;;11.11;72.35;98613.13;3506849;28;19935;-48
2021/05/06 07:47:22;;;;;;;;;;;;;;;11.09;72.99;98617.47;3508454;28;20443;-46
2021/05/06 07:49:05;;;;;;;;;;;;;;;11.06;73.49;98628.75;3509206;28;19953;-47
2021/05/06 07:50:49;;;;;;;;;;;;;;;11.03;74.83;98629.59;3506646;28;19924;-46
2021/05/06 07:52:33;;;;;;;;;;;;;;;10.99;74.82;98630.50;3496224;28;19924;-46
2021/05/06 07:54:16;;;;;;;;;;;;;;;10.97;73.48;98631.34;3502415;28;20011;-47
2021/05/06 07:56:00;;;;;;;;;;;;;;;10.96;73.52;98642.63;3510201;28;19977;-47
2021/05/06 07:57:41;;;;;;;;;;;;;;;10.99;73.97;98646.06;3507104;28;20384;-47
2021/05/06 07:59:23;;;;;;;;;;;;;;;11.08;73.62;98645.16;3507867;28;20273;-58
2021/05/06 08:01:04;;;;;;;;;;;;;;;11.16;73.14;98632.13;3509544;28;19923;-58
2021/05/06 08:02:47;;;;;;;;;;;;;;;11.32;73.20;98636.38;3506767;28;19932;-59
2021/05/06 08:04:28;;;;;;;;;;;;;;;11.52;73.07;98636.28;3510185;28;20292;-58
2021/05/06 08:06:10;;;;;;;;;;;;;;;11.73;71.64;98627.47;3500940;28;19975;-59
2021/05/06 08:07:51;;;;;;;;;;;;;;;11.83;71.29;98628.25;3495924;28;19952;-58
2021/05/06 08:09:33;;;;;;;;;;;;;;;11.89;70.96;98632.53;3506453;28;20026;-58
2021/05/06 08:11:14;;;;;;;;;;;;;;;11.88;69.59;98634.25;3508926;28;19931;-59
2021/05/06 08:12:56;;;;;;;;;;;;;;;11.86;70.59;98636.03;3509274;28;19927;-58
2021/05/06 08:14:37;;;;;;;;;;;;;;;11.89;69.49;98627.31;3503774;28;19991;-58
2021/05/06 08:16:18;;;;;;;;;;;;;;;11.88;69.31;98623.88;3510157;28;19935;-58
2021/05/06 08:18:00;;;;;;;;;;;;;;;11.88;69.50;98644.66;3505155;28;20384;-57
2021/05/06 08:19:41;;;;;;;;;;;;;;;11.86;68.75;98641.22;3509438;28;19923;-57
2021/05/06 08:21:24;;;;;;;;;;;;;;;11.83;68.92;98636.03;3506017;28;19971;-58
2021/05/06 08:23:05;;;;;;;;;;;;;;;11.80;68.87;98649.94;3508238;28;19923;-46
2021/05/06 08:24:47;;;;;;;;;;;;;;;11.75;68.47;98650.84;3510670;28;19924;-46
2021/05/06 08:26:28;;;;;;;;;;;;;;;11.70;69.66;98656.06;3509031;28;19925;-46
2021/05/06 08:28:09;;;;;;;;;;;;;;;11.64;69.16;98656.09;3512530;28;19935;-47
2021/05/06 08:29:51;;;;;;;;;;;;;;;11.58;68.72;98667.41;3509043;28;19924;-46
2021/05/06 08:31:35;;;;;;;;;;;;;;;11.53;69.62;98676.94;3509240;28;20185;-46
2021/05/06 08:33:16;;;;;;;;;;;;;;;11.49;68.85;98677.84;3510707;28;19946;-46
2021/05/06 08:34:57;;;;;;;;;;;;;;;11.43;67.83;98681.34;3509906;28;19931;-47
2021/05/06 08:36:39;;;;;;;;;;;;;;;11.42;69.31;98670.97;3511342;28;20381;-47
2021/05/06 08:38:20;;;;;;;;;;;;;;;11.46;69.87;98680.47;3507433;28;19961;-47
2021/05/06 08:40:02;;;;;;;;;;;;;;;11.52;68.83;98679.59;3512211;28;20385;-46
2021/05/06 08:41:44;;;;;;;;;;;;;;;11.58;71.24;98689.91;3507211;28;19924;-46
2021/05/06 08:43:28;;;;;;;;;;;;;;;11.65;69.60;98689.00;3510513;28;20327;-46
2021/05/06 08:45:10;;;;;;;;;;;;;;;11.75;69.54;98684.63;3500456;28;20017;-47
2021/05/06 08:47:02;;;;;;;;;;;;;;;11.86;68.91;98690.59;3500118;28;19924;-46
2021/05/06 08:48:45;;;;;;;;;;;;;;;11.96;68.36;98697.44;3498322;28;20117;-46
2021/05/06 08:50:27;;;;;;;;;;;;;;;12.00;67.29;98703.50;3504943;28;20292;-46
2021/05/06 08:52:09;;;;;;;;;;;;;;;12.02;68.16;98701.72;3511905;28;19985;-46
2021/05/06 08:53:50;;;;;;;;;;;;;;;12.10;68.46;98717.25;3509052;28;19928;-50
2021/05/06 08:55:32;;;;;;;;;;;;;;;12.15;66.56;98712.88;3509241;28;19924;-46
2021/05/06 08:57:14;;;;;;;;;;;;;;;12.24;66.38;98719.75;3510578;28;19975;-46
2021/05/06 08:58:56;;;;;;;;;;;;;;;12.34;66.55;98705.78;3507529;28;19954;-46
2021/05/06 09:00:37;;;;;;;;;;;;;;;12.42;67.52;98703.13;3512026;28;20447;-46
2021/05/06 09:02:20;;;;;;;;;;;;;;;12.50;66.14;98698.72;3506937;28;19985;-47
2021/05/06 09:04:02;;;;;;;;;;;;;;;12.60;67.39;98708.16;3511552;28;20300;-46
2021/05/06 09:06:02;;;;;;;;;;;;;;;12.66;67.75;98702.88;3509004;28;19923;-46
2021/05/06 09:07:44;;;;;;;;;;;;;;;12.77;65.93;98705.38;3508500;28;19979;-46
2021/05/06 09:09:25;;;;;;;;;;;;;;;12.84;66.65;98700.94;3512011;28;19955;-46
2021/05/06 09:11:08;;;;;;;;;;;;;;;12.95;67.14;98705.19;3507100;28;20016;-46
2021/05/06 09:12:49;;;;;;;;;;;;;;;13.06;63.95;98699.00;3511488;28;19973;-47
2021/05/06 09:14:37;;;;;;;;;;;;;;;13.24;63.86;98698.78;3507395;28;20392;-46
2021/05/06 09:16:18;;;;;;;;;;;;;;;13.51;63.65;98694.94;3507385;28;19932;-48
2021/05/06 09:18:03;;;;;;;;;;;;;;;13.87;63.82;98697.88;3511078;28;19924;-47
2021/05/06 09:19:45;;;;;;;;;;;;;;;14.20;61.52;98703.47;3508353;28;20024;-47
2021/05/06 09:21:27;;;;;;;;;;;;;;;14.31;59.36;98703.31;3511984;28;19931;-47
2021/05/06 09:23:09;;;;;;;;;;;;;;;14.37;59.97;98695.38;3508396;28;20343;-46
2021/05/06 09:24:50;;;;;;;;;;;;;;;14.40;59.21;98710.13;3509843;28;19989;-47
2021/05/06 09:26:32;;;;;;;;;;;;;;;14.44;58.62;98710.03;3508899;28;19923;-47
2021/05/06 09:28:14;;;;;;;;;;;;;;;14.54;59.54;98700.28;3508613;28;19932;-48
2021/05/06 09:29:55;;;;;;;;;;;;;;;14.58;59.50;98709.78;3511848;28;19931;-46
2021/05/06 09:31:37;;;;;;;;;;;;;;;14.60;57.49;98710.59;3508201;28;19970;-48
2021/05/06 09:33:25;;;;;;;;;;;;;;;14.57;55.00;98715.91;3511821;28;19924;-48
2021/05/06 09:35:16;;;;;;;;;;;;;;;14.55;56.04;98722.88;3508305;28;20497;-46
2021/05/06 09:36:58;;;;;;;;;;;;;;;14.59;54.85;98729.78;3509448;28;19931;-46
2021/05/06 09:38:42;;;;;;;;;;;;;;;14.62;54.02;98729.75;3510390;28;19924;-47
2021/05/06 09:40:22;;;;;;;;;;;;;;;14.55;52.10;98729.84;3508112;28;19924;-47
2021/05/06 09:42:08;;;;;;;;;;;;;;;14.51;53.07;98721.22;3511660;28;20010;-46
2021/05/06 09:43:50;;;;;;;;;;;;;;;14.55;54.22;98728.09;3508018;28;20024;-48
2021/05/06 09:45:51;;;;;;;;;;;;;;;14.83;54.39;98743.25;3508226;28;20019;-46
2021/05/06 09:47:32;;;;;;;;;;;;;;;15.04;53.41;98711.50;3509168;28;19931;-47
2021/05/06 09:49:14;;;;;;;;;;;;;;;15.21;53.78;98726.00;3506979;28;19924;-48
2021/05/06 09:50:59;;;;;;;;;;;;;;;15.32;53.23;98724.03;3497635;28;19924;-45
2021/05/06 09:52:58;;;;;;;;;;;;;;;15.50;52.63;98725.38;3502715;28;19935;-47
2021/05/06 09:54:47;;;;;;;;;;;;;;;15.50;52.34;98734.97;3509501;28;20397;-47
2021/05/06 09:56:28;;;;;;;;;;;;;;;15.43;50.10;98734.25;3510089;28;19974;-47
2021/05/06 09:58:14;;;;;;;;;;;;;;;15.21;49.01;98731.22;3506844;28;19967;-48
2021/05/06 10:00:12;;;;;;;;;;;;;;;15.14;50.10;98742.69;3511593;28;19924;-47
2021/05/06 10:02:05;;;;;;;;;;;;;;;15.13;50.03;98736.59;3507973;28;19924;-47
2021/05/06 10:03:47;;;;;;;;;;;;;;;15.08;50.52;98748.88;3507175;28;19924;-50
2021/05/06 10:05:35;;;;;;;;;;;;;;;14.96;50.27;98750.00;3510301;28;19984;-46
2021/05/06 10:07:17;;;;;;;;;;;;;;;14.83;50.57;98754.56;3507986;28;19931;-51
2021/05/06 10:09:01;;;;;;;;;;;;;;;14.75;50.92;98756.47;3511545;28;19928;-52
2021/05/06 10:10:43;;;;;;;;;;;;;;;14.73;51.65;98750.44;3508145;28;19924;-54
2021/05/06 10:12:25;;;;;;;;;;;;;;;14.75;51.06;98753.88;3509854;28;19970;-51
2021/05/06 10:14:07;;;;;;;;;;;;;;;14.79;50.74;98760.75;3507246;28;19924;-51
2021/05/06 10:15:48;;;;;;;;;;;;;;;14.82;50.64;98752.00;3509021;28;19923;-51
2021/05/06 10:17:29;;;;;;;;;;;;;;;14.82;50.08;98755.47;3510019;28;20393;-50
2021/05/06 10:19:11;;;;;;;;;;;;;;;14.79;49.02;98752.06;3506847;28;19981;-54
2021/05/06 10:20:52;;;;;;;;;;;;;;;14.72;49.10;98756.53;3511282;28;19924;-50
2021/05/06 10:22:34;;;;;;;;;;;;;;;14.83;50.34;98756.31;3507476;28;20380;-51
2021/05/06 10:24:15;;;;;;;;;;;;;;;14.94;48.88;98757.00;3508637;28;19924;-50
2021/05/06 10:25:57;;;;;;;;;;;;;;;15.12;49.83;98754.94;3509546;28;19924;-49
2021/05/06 10:27:41;;;;;;;;;;;;;;;15.31;49.20;98763.25;3508784;28;20478;-50
2021/05/06 10:29:24;;;;;;;;;;;;;;;15.56;49.72;98754.00;3510499;28;19924;-51
2021/05/06 10:31:24;;;;;;;;;;;;;;;15.86;48.04;98761.22;3506253;28;19966;-50
2021/05/06 10:33:06;;;;;;;;;;;;;;;15.94;47.97;98768.00;3510486;28;19955;-51
2021/05/06 10:34:51;;;;;;;;;;;;;;;15.89;47.35;98776.88;3508564;28;19923;-51
2021/05/06 10:36:34;;;;;;;;;;;;;;;15.76;47.43;98763.22;3507874;28;19924;-50
2021/05/06 10:38:15;;;;;;;;;;;;;;;15.58;46.20;98778.41;3510317;28;19923;-47
2021/05/06 10:39:57;;;;;;;;;;;;;;;15.30;44.31;98772.00;3507422;28;20400;-47
2021/05/06 10:41:39;;;;;;;;;;;;;;;15.16;44.66;98773.09;3510836;28;19924;-48
2021/05/06 10:43:23;;;;;;;;;;;;;;;15.10;45.44;98769.75;3507511;28;19970;-47
2021/05/06 10:45:25;;;;;;;;;;;;;;;15.09;45.60;98766.28;3509045;28;19924;-48
2021/05/06 10:47:11;;;;;;;;;;;;;;;15.15;44.74;98771.41;3509850;28;20385;-47
2021/05/06 10:48:57;;;;;;;;;;;;;;;15.21;45.32;98768.66;3506984;28;19993;-47
2021/05/06 10:50:39;;;;;;;;;;;;;;;15.26;45.77;98772.91;3510841;28;19970;-47
2021/05/06 10:52:35;;;;;;;;;;;;;;;15.34;45.31;98774.50;3507460;28;19955;-48
2021/05/06 10:54:37;;;;;;;;;;;;;;;15.51;43.42;98770.69;3507639;28;20393;-48
2021/05/06 10:56:18;;;;;;;;;;;;;;;15.60;42.22;98768.75;3493448;28;19959;-48
2021/05/06 10:58:19;;;;;;;;;;;;;;;15.67;41.54;98777.34;3505822;28;19923;-47
2021/05/06 11:00:00;;;;;;;;;;;;;;;15.77;42.45;98772.75;3508845;28;19945;-47
2021/05/06 11:01:41;;;;;;;;;;;;;;;16.00;44.79;98774.88;3509063;28;19984;-47
2021/05/06 11:03:25;;;;;;;;;;;;;;;16.34;42.93;98769.69;3506164;28;20366;-47
2021/05/06 11:05:09;;;;;;;;;;;;;;;16.58;41.92;98771.75;3496669;28;19924;-47
2021/05/06 11:06:50;;;;;;;;;;;;;;;16.61;41.61;98769.06;3504273;28;19971;-46
2021/05/06 11:08:32;;;;;;;;;;;;;;;16.46;42.19;98779.03;3509854;28;19959;-46
2021/05/06 11:10:13;;;;;;;;;;;;;;;16.31;41.77;98774.16;3506901;28;19924;-51
2021/05/06 11:12:09;;;;;;;;;;;;;;;16.20;40.76;98778.81;3508335;28;19946;-54
2021/05/06 11:14:07;;;;;;;;;;;;;;;16.32;42.63;98776.75;3508728;28;19931;-52
2021/05/06 11:15:48;;;;;;;;;;;;;;;16.54;41.77;98770.97;3506174;28;19924;-52
2021/05/06 11:17:40;;;;;;;;;;;;;;;16.55;40.53;98775.31;3509175;28;19924;-50
2021/05/06 11:19:36;;;;;;;;;;;;;;;16.34;40.23;98777.56;3507654;28;20285;-50
2021/05/06 11:21:33;;;;;;;;;;;;;;;16.30;42.03;98782.88;3505406;28;19967;-51
2021/05/06 11:23:18;;;;;;;;;;;;;;;16.36;41.58;98780.13;3510839;28;19924;-50
2021/05/06 11:25:00;;;;;;;;;;;;;;;16.42;40.82;98779.97;3507046;28;20377;-50